sensor_id;sensor_type;location;lat;lon;timestamp;P1;P2;P0
55449;PMS5003;41318;58.724;50.180;2023-02-28T00:00:36;14.20;14.20;10.00
55449;PMS5003;41318;58.724;50.180;2023-02-28T00:03:07;9.80;9.80;7.00
55449;PMS5003;41318;58.724;50.180;2023-02-28T00:05:38;8.60;8.60;5.60
55449;PMS5003;41318;58.724;50.180;2023-02-28T00:08:09;9.60;9.00;6.20
55449;PMS5003;41318;58.724;50.180;2023-02-28T00:10:41;11.60;11.60;5.20
55449;PMS5003;41318;58.724;50.180;2023-02-28T00:13:12;12.60;12.60;7.00
55449;PMS5003;41318;58.724;50.180;2023-02-28T00:15:43;16.20;14.00;7.80
55449;PMS5003;41318;58.724;50.180;2023-02-28T00:18:16;28.20;26.40;17.60
55449;PMS5003;41318;58.724;50.180;2023-02-28T00:20:47;40.20;37.80;18.40
55449;PMS5003;41318;58.724;50.180;2023-02-28T00:23:18;33.20;32.20;17.60
55449;PMS5003;41318;58.724;50.180;2023-02-28T00:25:49;52.20;42.20;21.00
55449;PMS5003;41318;58.724;50.180;2023-02-28T00:28:21;17.60;17.00;10.80
55449;PMS5003;41318;58.724;50.180;2023-02-28T00:30:52;22.80;22.40;13.60
55449;PMS5003;41318;58.724;50.180;2023-02-28T00:33:23;13.40;12.60;7.00
55449;PMS5003;41318;58.724;50.180;2023-02-28T00:36:01;12.00;12.00;8.60
55449;PMS5003;41318;58.724;50.180;2023-02-28T00:38:34;6.60;6.60;3.60
55449;PMS5003;41318;58.724;50.180;2023-02-28T00:41:05;11.20;9.60;3.40
55449;PMS5003;41318;58.724;50.180;2023-02-28T00:43:37;19.40;18.60;11.60
55449;PMS5003;41318;58.724;50.180;2023-02-28T00:46:27;15.20;14.80;7.40
55449;PMS5003;41318;58.724;50.180;2023-02-28T00:48:58;13.00;13.00;10.00
55449;PMS5003;41318;58.724;50.180;2023-02-28T00:51:29;15.60;15.60;12.80
55449;PMS5003;41318;58.724;50.180;2023-02-28T00:54:01;11.20;11.20;9.00
55449;PMS5003;41318;58.724;50.180;2023-02-28T00:56:32;12.80;12.00;7.00
55449;PMS5003;41318;58.724;50.180;2023-02-28T00:59:23;14.40;13.80;8.60
55449;PMS5003;41318;58.724;50.180;2023-02-28T01:02:12;16.00;15.60;11.20
55449;PMS5003;41318;58.724;50.180;2023-02-28T01:04:43;6.60;6.60;5.20
55449;PMS5003;41318;58.724;50.180;2023-02-28T01:07:14;1.80;1.80;1.00
55449;PMS5003;41318;58.724;50.180;2023-02-28T01:09:46;1.00;1.00;1.00
55449;PMS5003;41318;58.724;50.180;2023-02-28T01:12:17;7.80;7.80;6.00
55449;PMS5003;41318;58.724;50.180;2023-02-28T01:15:06;1.00;0.60;0.00
55449;PMS5003;41318;58.724;50.180;2023-02-28T01:17:37;9.00;9.00;5.60
55449;PMS5003;41318;58.724;50.180;2023-02-28T01:20:27;7.00;6.00;3.00
55449;PMS5003;41318;58.724;50.180;2023-02-28T01:22:58;3.25;3.25;1.00
55449;PMS5003;41318;58.724;50.180;2023-02-28T01:25:29;10.00;10.00;5.50
55449;PMS5003;41318;58.724;50.180;2023-02-28T01:28:00;3.20;2.20;0.00
55449;PMS5003;41318;58.724;50.180;2023-02-28T01:30:31;6.75;6.75;3.50
55449;PMS5003;41318;58.724;50.180;2023-02-28T01:33:02;6.40;6.40;5.20
55449;PMS5003;41318;58.724;50.180;2023-02-28T01:35:35;6.60;6.60;3.20
55449;PMS5003;41318;58.724;50.180;2023-02-28T01:38:06;4.00;4.00;2.60
55449;PMS5003;41318;58.724;50.180;2023-02-28T01:40:37;6.50;6.50;3.00
55449;PMS5003;41318;58.724;50.180;2023-02-28T01:43:12;9.20;9.00;7.00
55449;PMS5003;41318;58.724;50.180;2023-02-28T01:45:47;8.60;8.60;6.40
55449;PMS5003;41318;58.724;50.180;2023-02-28T01:48:18;11.75;11.25;7.50
55449;PMS5003;41318;58.724;50.180;2023-02-28T01:50:51;19.80;19.00;10.00
55449;PMS5003;41318;58.724;50.180;2023-02-28T01:53:25;23.00;21.60;13.00
55449;PMS5003;41318;58.724;50.180;2023-02-28T01:55:58;13.80;13.80;7.40
55449;PMS5003;41318;58.724;50.180;2023-02-28T01:58:29;15.20;15.00;9.00
55449;PMS5003;41318;58.724;50.180;2023-02-28T02:01:00;12.00;12.00;10.20
55449;PMS5003;41318;58.724;50.180;2023-02-28T02:03:33;7.80;6.80;4.40
55449;PMS5003;41318;58.724;50.180;2023-02-28T02:06:06;9.40;9.40;6.00
55449;PMS5003;41318;58.724;50.180;2023-02-28T02:08:36;11.00;11.00;6.75
55449;PMS5003;41318;58.724;50.180;2023-02-28T02:11:10;7.00;7.00;4.00
55449;PMS5003;41318;58.724;50.180;2023-02-28T02:16:40;6.20;6.20;3.20
55449;PMS5003;41318;58.724;50.180;2023-02-28T02:25:11;8.60;8.60;5.60
55449;PMS5003;41318;58.724;50.180;2023-02-28T02:33:09;8.60;8.60;6.60
55449;PMS5003;41318;58.724;50.180;2023-02-28T02:44:02;4.40;4.40;3.80
55449;PMS5003;41318;58.724;50.180;2023-02-28T02:46:55;4.40;4.00;3.00
55449;PMS5003;41318;58.724;50.180;2023-02-28T02:49:32;3.60;2.60;0.00
55449;PMS5003;41318;58.724;50.180;2023-02-28T02:52:07;1.80;1.80;0.00
55449;PMS5003;41318;58.724;50.180;2023-02-28T02:54:43;3.40;3.40;3.00
55449;PMS5003;41318;58.724;50.180;2023-02-28T03:00:39;8.60;7.00;4.00
55449;PMS5003;41318;58.724;50.180;2023-02-28T03:03:14;4.00;4.00;3.00
55449;PMS5003;41318;58.724;50.180;2023-02-28T03:05:48;9.00;9.00;6.00
55449;PMS5003;41318;58.724;50.180;2023-02-28T03:08:20;9.20;9.20;6.00
55449;PMS5003;41318;58.724;50.180;2023-02-28T03:10:52;9.60;9.60;7.00
55449;PMS5003;41318;58.724;50.180;2023-02-28T03:13:37;10.20;10.20;7.00
55449;PMS5003;41318;58.724;50.180;2023-02-28T03:21:45;8.00;7.80;6.00
55449;PMS5003;41318;58.724;50.180;2023-02-28T03:27:01;10.60;10.60;7.80
55449;PMS5003;41318;58.724;50.180;2023-02-28T03:29:37;6.80;6.80;6.80
55449;PMS5003;41318;58.724;50.180;2023-02-28T03:34:50;7.00;7.00;4.40
55449;PMS5003;41318;58.724;50.180;2023-02-28T03:37:25;9.60;9.60;6.60
55449;PMS5003;41318;58.724;50.180;2023-02-28T03:39:59;6.80;6.00;3.00
55449;PMS5003;41318;58.724;50.180;2023-02-28T04:21:22;4.40;4.40;3.60
55449;PMS5003;41318;58.724;50.180;2023-02-28T04:33:07;4.40;4.40;3.40
55449;PMS5003;41318;58.724;50.180;2023-02-28T04:36:04;4.40;4.40;3.00
55449;PMS5003;41318;58.724;50.180;2023-02-28T04:57:42;6.80;6.80;4.20
55449;PMS5003;41318;58.724;50.180;2023-02-28T05:00:36;10.40;9.80;6.40
55449;PMS5003;41318;58.724;50.180;2023-02-28T05:03:09;6.20;6.20;4.00
55449;PMS5003;41318;58.724;50.180;2023-02-28T05:05:40;1.80;1.80;1.00
55449;PMS5003;41318;58.724;50.180;2023-02-28T05:08:11;6.60;6.60;5.00
55449;PMS5003;41318;58.724;50.180;2023-02-28T05:10:42;7.00;6.60;3.60
55449;PMS5003;41318;58.724;50.180;2023-02-28T05:13:13;8.20;8.20;5.60
55449;PMS5003;41318;58.724;50.180;2023-02-28T05:15:44;6.00;6.00;4.00
55449;PMS5003;41318;58.724;50.180;2023-02-28T05:18:15;5.80;5.80;3.00
55449;PMS5003;41318;58.724;50.180;2023-02-28T05:20:46;1.50;1.50;0.00
55449;PMS5003;41318;58.724;50.180;2023-02-28T05:23:17;4.80;4.80;1.40
55449;PMS5003;41318;58.724;50.180;2023-02-28T05:25:50;7.80;7.80;5.20
55449;PMS5003;41318;58.724;50.180;2023-02-28T05:28:22;3.40;3.40;1.80
55449;PMS5003;41318;58.724;50.180;2023-02-28T05:30:55;7.00;6.20;4.00
55449;PMS5003;41318;58.724;50.180;2023-02-28T05:33:26;6.20;6.20;4.00
55449;PMS5003;41318;58.724;50.180;2023-02-28T05:35:57;3.50;3.50;1.00
55449;PMS5003;41318;58.724;50.180;2023-02-28T05:38:28;8.25;6.75;5.00
55449;PMS5003;41318;58.724;50.180;2023-02-28T05:40:59;4.50;4.50;3.00
55449;PMS5003;41318;58.724;50.180;2023-02-28T05:43:30;5.20;5.20;3.60
55449;PMS5003;41318;58.724;50.180;2023-02-28T05:46:19;3.80;3.80;1.00
55449;PMS5003;41318;58.724;50.180;2023-02-28T05:48:50;6.00;6.00;3.50
55449;PMS5003;41318;58.724;50.180;2023-02-28T05:51:21;4.00;4.00;3.00
55449;PMS5003;41318;58.724;50.180;2023-02-28T05:53:52;9.00;9.00;7.00
55449;PMS5003;41318;58.724;50.180;2023-02-28T05:56:23;11.75;8.50;4.00
55449;PMS5003;41318;58.724;50.180;2023-02-28T05:58:53;4.75;3.75;3.00
55449;PMS5003;41318;58.724;50.180;2023-02-28T06:01:30;3.25;3.25;1.50
55449;PMS5003;41318;58.724;50.180;2023-02-28T06:04:02;3.00;3.00;1.00
55449;PMS5003;41318;58.724;50.180;2023-02-28T06:06:34;6.20;6.20;4.00
55449;PMS5003;41318;58.724;50.180;2023-02-28T06:09:06;1.00;1.00;1.00
55449;PMS5003;41318;58.724;50.180;2023-02-28T06:11:37;9.40;8.60;5.60
55449;PMS5003;41318;58.724;50.180;2023-02-28T06:14:18;7.50;7.50;4.00
55449;PMS5003;41318;58.724;50.180;2023-02-28T06:16:49;6.40;6.20;4.00
55449;PMS5003;41318;58.724;50.180;2023-02-28T06:19:20;5.60;5.60;3.00
55449;PMS5003;41318;58.724;50.180;2023-02-28T06:21:53;4.80;4.80;3.20
55449;PMS5003;41318;58.724;50.180;2023-02-28T06:24:25;4.40;4.40;3.00
55449;PMS5003;41318;58.724;50.180;2023-02-28T06:26:58;9.20;9.20;6.60
55449;PMS5003;41318;58.724;50.180;2023-02-28T06:29:54;7.40;7.40;4.40
55449;PMS5003;41318;58.724;50.180;2023-02-28T06:32:26;7.20;7.20;5.20
55449;PMS5003;41318;58.724;50.180;2023-02-28T06:34:57;7.00;7.00;6.00
55449;PMS5003;41318;58.724;50.180;2023-02-28T06:37:47;6.80;6.80;4.00
55449;PMS5003;41318;58.724;50.180;2023-02-28T06:40:18;5.20;5.20;3.80
55449;PMS5003;41318;58.724;50.180;2023-02-28T06:42:49;6.20;6.20;3.00
55449;PMS5003;41318;58.724;50.180;2023-02-28T06:45:19;8.50;8.50;6.00
55449;PMS5003;41318;58.724;50.180;2023-02-28T06:47:50;4.20;4.20;1.80
55449;PMS5003;41318;58.724;50.180;2023-02-28T06:50:23;4.40;4.40;3.00
55449;PMS5003;41318;58.724;50.180;2023-02-28T06:53:12;6.60;6.60;4.00
55449;PMS5003;41318;58.724;50.180;2023-02-28T06:55:43;6.25;6.25;3.00
55449;PMS5003;41318;58.724;50.180;2023-02-28T06:58:14;3.60;3.60;1.00
55449;PMS5003;41318;58.724;50.180;2023-02-28T07:00:50;5.20;5.20;3.40
55449;PMS5003;41318;58.724;50.180;2023-02-28T07:03:22;9.80;9.80;7.40
55449;PMS5003;41318;58.724;50.180;2023-02-28T07:05:53;5.80;5.80;4.40
55449;PMS5003;41318;58.724;50.180;2023-02-28T07:08:27;9.20;9.20;6.80
55449;PMS5003;41318;58.724;50.180;2023-02-28T07:10:58;5.60;5.60;4.00
55449;PMS5003;41318;58.724;50.180;2023-02-28T07:13:29;6.00;6.00;2.60
55449;PMS5003;41318;58.724;50.180;2023-02-28T07:16:04;6.20;4.40;3.80
55449;PMS5003;41318;58.724;50.180;2023-02-28T07:18:36;5.20;5.20;3.60
55449;PMS5003;41318;58.724;50.180;2023-02-28T07:21:08;6.00;6.00;4.00
55449;PMS5003;41318;58.724;50.180;2023-02-28T07:23:39;3.00;3.00;2.60
55449;PMS5003;41318;58.724;50.180;2023-02-28T07:26:12;10.40;9.20;6.00
55449;PMS5003;41318;58.724;50.180;2023-02-28T07:28:45;12.00;9.00;5.60
55449;PMS5003;41318;58.724;50.180;2023-02-28T07:31:17;7.00;7.00;4.40
55449;PMS5003;41318;58.724;50.180;2023-02-28T07:33:48;7.20;7.20;6.00
55449;PMS5003;41318;58.724;50.180;2023-02-28T07:36:20;4.40;4.40;3.00
55449;PMS5003;41318;58.724;50.180;2023-02-28T07:38:51;6.75;6.75;4.50
55449;PMS5003;41318;58.724;50.180;2023-02-28T07:41:22;10.40;9.40;4.40
55449;PMS5003;41318;58.724;50.180;2023-02-28T07:43:55;6.40;6.40;4.00
55449;PMS5003;41318;58.724;50.180;2023-02-28T07:46:28;6.80;6.80;4.00
55449;PMS5003;41318;58.724;50.180;2023-02-28T07:49:05;8.00;7.40;4.80
55449;PMS5003;41318;58.724;50.180;2023-02-28T07:51:37;3.40;3.40;3.00
55449;PMS5003;41318;58.724;50.180;2023-02-28T07:54:08;4.40;4.40;3.00
55449;PMS5003;41318;58.724;50.180;2023-02-28T07:56:39;17.20;15.00;9.00
55449;PMS5003;41318;58.724;50.180;2023-02-28T07:59:29;7.00;7.00;4.00
55449;PMS5003;41318;58.724;50.180;2023-02-28T08:02:00;7.25;6.00;3.75
55449;PMS5003;41318;58.724;50.180;2023-02-28T08:04:31;6.25;5.50;2.50
55449;PMS5003;41318;58.724;50.180;2023-02-28T08:07:02;8.80;8.80;5.60
55449;PMS5003;41318;58.724;50.180;2023-02-28T08:09:34;3.50;3.50;2.00
55449;PMS5003;41318;58.724;50.180;2023-02-28T08:12:05;6.80;6.80;5.60
55449;PMS5003;41318;58.724;50.180;2023-02-28T08:14:36;3.60;3.20;2.20
55449;PMS5003;41318;58.724;50.180;2023-02-28T08:17:07;8.60;6.80;6.00
55449;PMS5003;41318;58.724;50.180;2023-02-28T08:19:38;8.00;8.00;4.00
55449;PMS5003;41318;58.724;50.180;2023-02-28T08:22:09;6.60;6.60;4.00
55449;PMS5003;41318;58.724;50.180;2023-02-28T08:24:58;6.80;6.80;4.40
55449;PMS5003;41318;58.724;50.180;2023-02-28T08:27:29;7.25;7.25;4.00
55449;PMS5003;41318;58.724;50.180;2023-02-28T08:30:00;7.00;7.00;4.50
55449;PMS5003;41318;58.724;50.180;2023-02-28T08:32:34;4.80;4.40;3.00
55449;PMS5003;41318;58.724;50.180;2023-02-28T08:35:05;6.20;6.20;3.00
55449;PMS5003;41318;58.724;50.180;2023-02-28T08:37:36;4.40;4.40;3.00
55449;PMS5003;41318;58.724;50.180;2023-02-28T08:40:07;4.00;4.00;2.20
55449;PMS5003;41318;58.724;50.180;2023-02-28T08:42:38;6.00;6.00;4.00
55449;PMS5003;41318;58.724;50.180;2023-02-28T08:45:28;3.20;3.20;1.40
55449;PMS5003;41318;58.724;50.180;2023-02-28T08:47:59;6.40;6.40;5.60
55449;PMS5003;41318;58.724;50.180;2023-02-28T08:50:29;9.00;9.00;5.00
55449;PMS5003;41318;58.724;50.180;2023-02-28T08:53:00;6.00;6.00;2.60
55449;PMS5003;41318;58.724;50.180;2023-02-28T08:55:31;6.40;6.40;4.40
55449;PMS5003;41318;58.724;50.180;2023-02-28T08:58:02;9.25;9.25;4.00
55449;PMS5003;41318;58.724;50.180;2023-02-28T09:00:52;6.80;6.60;3.60
55449;PMS5003;41318;58.724;50.180;2023-02-28T09:13:11;3.40;3.40;2.20
55449;PMS5003;41318;58.724;50.180;2023-02-28T09:15:42;6.00;5.60;3.00
55449;PMS5003;41318;58.724;50.180;2023-02-28T09:18:13;2.20;2.20;0.80
55449;PMS5003;41318;58.724;50.180;2023-02-28T09:20:47;3.00;3.00;0.20
55449;PMS5003;41318;58.724;50.180;2023-02-28T09:26:00;1.80;0.80;0.00
55449;PMS5003;41318;58.724;50.180;2023-02-28T09:28:33;9.80;9.20;5.20
55449;PMS5003;41318;58.724;50.180;2023-02-28T09:31:05;10.80;9.60;7.40
55449;PMS5003;41318;58.724;50.180;2023-02-28T09:33:38;12.00;12.00;9.00
55449;PMS5003;41318;58.724;50.180;2023-02-28T09:36:09;13.40;13.40;8.60
55449;PMS5003;41318;58.724;50.180;2023-02-28T09:38:42;7.40;7.40;6.20
55449;PMS5003;41318;58.724;50.180;2023-02-28T09:41:17;10.40;10.40;7.00
55449;PMS5003;41318;58.724;50.180;2023-02-28T09:44:09;9.00;9.00;6.60
55449;PMS5003;41318;58.724;50.180;2023-02-28T09:46:46;8.80;7.80;3.60
55449;PMS5003;41318;58.724;50.180;2023-02-28T09:49:22;4.40;4.40;3.40
55449;PMS5003;41318;58.724;50.180;2023-02-28T09:54:28;7.00;7.00;4.40
55449;PMS5003;41318;58.724;50.180;2023-02-28T09:57:01;10.80;10.80;4.00
55449;PMS5003;41318;58.724;50.180;2023-02-28T10:05:10;9.00;9.00;6.60
55449;PMS5003;41318;58.724;50.180;2023-02-28T10:10:27;15.40;15.00;9.00
55449;PMS5003;41318;58.724;50.180;2023-02-28T10:13:00;9.00;9.00;6.20
55449;PMS5003;41318;58.724;50.180;2023-02-28T10:15:33;11.20;11.20;8.20
55449;PMS5003;41318;58.724;50.180;2023-02-28T10:18:05;10.20;9.00;5.40
55449;PMS5003;41318;58.724;50.180;2023-02-28T10:20:39;19.80;18.80;12.20
55449;PMS5003;41318;58.724;50.180;2023-02-28T10:23:36;9.20;9.20;7.00
55449;PMS5003;41318;58.724;50.180;2023-02-28T10:26:12;17.80;17.20;12.40
55449;PMS5003;41318;58.724;50.180;2023-02-28T10:28:43;3.20;3.20;2.60
55449;PMS5003;41318;58.724;50.180;2023-02-28T10:31:15;9.20;9.00;6.20
55449;PMS5003;41318;58.724;50.180;2023-02-28T10:33:48;10.60;10.60;6.60
55449;PMS5003;41318;58.724;50.180;2023-02-28T10:36:19;15.50;15.50;9.75
55449;PMS5003;41318;58.724;50.180;2023-02-28T10:38:50;13.60;13.60;9.20
55449;PMS5003;41318;58.724;50.180;2023-02-28T10:41:42;15.20;15.20;11.20
55449;PMS5003;41318;58.724;50.180;2023-02-28T10:44:14;9.20;8.40;5.80
55449;PMS5003;41318;58.724;50.180;2023-02-28T10:46:45;13.60;12.00;7.60
55449;PMS5003;41318;58.724;50.180;2023-02-28T10:49:19;11.00;11.00;7.20
55449;PMS5003;41318;58.724;50.180;2023-02-28T10:51:52;13.00;12.60;9.20
55449;PMS5003;41318;58.724;50.180;2023-02-28T10:54:26;14.40;14.40;9.80
55449;PMS5003;41318;58.724;50.180;2023-02-28T10:57:18;14.20;14.20;10.00
55449;PMS5003;41318;58.724;50.180;2023-02-28T10:59:50;10.00;10.00;8.80
55449;PMS5003;41318;58.724;50.180;2023-02-28T11:02:29;13.40;13.40;9.20
55449;PMS5003;41318;58.724;50.180;2023-02-28T11:08:10;9.20;9.20;7.80
55449;PMS5003;41318;58.724;50.180;2023-02-28T11:10:47;17.60;16.20;10.00
55449;PMS5003;41318;58.724;50.180;2023-02-28T11:13:24;10.80;10.80;7.00
55449;PMS5003;41318;58.724;50.180;2023-02-28T11:15:58;14.60;12.40;9.00
55449;PMS5003;41318;58.724;50.180;2023-02-28T11:18:33;17.40;16.80;12.00
55449;PMS5003;41318;58.724;50.180;2023-02-28T11:21:07;10.80;10.40;8.60
55449;PMS5003;41318;58.724;50.180;2023-02-28T11:23:40;21.80;20.20;14.00
55449;PMS5003;41318;58.724;50.180;2023-02-28T11:26:12;15.00;14.20;10.40
55449;PMS5003;41318;58.724;50.180;2023-02-28T11:32:21;13.80;12.80;7.80
55449;PMS5003;41318;58.724;50.180;2023-02-28T11:37:41;12.80;12.80;10.00
55449;PMS5003;41318;58.724;50.180;2023-02-28T11:40:15;15.75;15.25;10.00
55449;PMS5003;41318;58.724;50.180;2023-02-28T11:42:50;6.00;4.80;4.80
55449;PMS5003;41318;58.724;50.180;2023-02-28T11:45:30;18.40;18.40;13.80
55449;PMS5003;41318;58.724;50.180;2023-02-28T11:50:39;15.25;15.25;12.25
55449;PMS5003;41318;58.724;50.180;2023-02-28T11:55:54;18.00;18.00;12.20
55449;PMS5003;41318;58.724;50.180;2023-02-28T12:01:06;16.00;16.00;12.25
55449;PMS5003;41318;58.724;50.180;2023-02-28T12:06:22;7.40;7.40;5.20
55449;PMS5003;41318;58.724;50.180;2023-02-28T12:11:48;7.40;7.40;6.40
55449;PMS5003;41318;58.724;50.180;2023-02-28T12:17:27;9.00;9.00;7.00
55449;PMS5003;41318;58.724;50.180;2023-02-28T12:20:05;20.00;19.60;13.80
55449;PMS5003;41318;58.724;50.180;2023-02-28T12:22:53;13.80;11.60;9.20
55449;PMS5003;41318;58.724;50.180;2023-02-28T12:28:00;9.75;9.75;6.75
55449;PMS5003;41318;58.724;50.180;2023-02-28T12:30:36;15.60;15.60;11.60
55449;PMS5003;41318;58.724;50.180;2023-02-28T12:33:12;12.00;10.00;7.00
55449;PMS5003;41318;58.724;50.180;2023-02-28T12:35:49;7.80;7.80;6.00
55449;PMS5003;41318;58.724;50.180;2023-02-28T12:38:34;9.80;9.80;7.20
55449;PMS5003;41318;58.724;50.180;2023-02-28T12:44:04;14.00;14.00;7.80
55449;PMS5003;41318;58.724;50.180;2023-02-28T12:46:38;15.00;15.00;12.00
55449;PMS5003;41318;58.724;50.180;2023-02-28T12:49:33;32.60;32.60;21.20
55449;PMS5003;41318;58.724;50.180;2023-02-28T12:52:08;28.00;27.20;17.60
55449;PMS5003;41318;58.724;50.180;2023-02-28T12:59:55;11.60;11.60;9.00
55449;PMS5003;41318;58.724;50.180;2023-02-28T13:10:23;10.00;10.00;7.40
55449;PMS5003;41318;58.724;50.180;2023-02-28T13:12:54;13.40;12.60;4.00
55449;PMS5003;41318;58.724;50.180;2023-02-28T13:15:26;24.80;22.20;12.00
55449;PMS5003;41318;58.724;50.180;2023-02-28T13:18:27;25.40;25.40;16.40
55449;PMS5003;41318;58.724;50.180;2023-02-28T13:20:59;19.00;19.00;12.80
55449;PMS5003;41318;58.724;50.180;2023-02-28T13:34:39;14.20;13.00;9.00
55449;PMS5003;41318;58.724;50.180;2023-02-28T13:39:49;12.60;12.60;10.40
55449;PMS5003;41318;58.724;50.180;2023-02-28T13:42:34;10.00;10.00;7.00
55449;PMS5003;41318;58.724;50.180;2023-02-28T13:53:24;18.40;17.00;11.00
55449;PMS5003;41318;58.724;50.180;2023-02-28T13:56:10;15.00;15.00;10.00
55449;PMS5003;41318;58.724;50.180;2023-02-28T13:59:22;24.60;24.00;13.00
55449;PMS5003;41318;58.724;50.180;2023-02-28T14:02:06;11.80;11.80;7.20
55449;PMS5003;41318;58.724;50.180;2023-02-28T14:07:26;16.40;14.20;7.60
55449;PMS5003;41318;58.724;50.180;2023-02-28T14:10:03;16.40;16.40;12.20
55449;PMS5003;41318;58.724;50.180;2023-02-28T14:12:52;15.60;14.60;9.20
55449;PMS5003;41318;58.724;50.180;2023-02-28T14:17:55;12.25;12.25;9.75
55449;PMS5003;41318;58.724;50.180;2023-02-28T14:20:29;8.40;8.40;6.40
55449;PMS5003;41318;58.724;50.180;2023-02-28T14:31:04;9.80;9.80;6.80
55449;PMS5003;41318;58.724;50.180;2023-02-28T14:34:03;15.20;15.20;9.80
55449;PMS5003;41318;58.724;50.180;2023-02-28T14:36:37;14.60;14.60;10.00
55449;PMS5003;41318;58.724;50.180;2023-02-28T14:39:16;7.00;7.00;4.00
55449;PMS5003;41318;58.724;50.180;2023-02-28T14:41:49;15.40;15.40;11.80
55449;PMS5003;41318;58.724;50.180;2023-02-28T14:44:21;13.00;12.00;9.00
55449;PMS5003;41318;58.724;50.180;2023-02-28T14:46:53;11.60;11.60;7.00
55449;PMS5003;41318;58.724;50.180;2023-02-28T14:49:32;8.20;8.20;5.60
55449;PMS5003;41318;58.724;50.180;2023-02-28T14:52:15;13.20;12.60;8.80
55449;PMS5003;41318;58.724;50.180;2023-02-28T14:54:51;12.60;12.60;10.00
55449;PMS5003;41318;58.724;50.180;2023-02-28T14:57:24;55.00;47.80;33.80
55449;PMS5003;41318;58.724;50.180;2023-02-28T15:02:33;15.00;15.00;9.40
55449;PMS5003;41318;58.724;50.180;2023-02-28T15:07:47;13.00;12.80;6.40
55449;PMS5003;41318;58.724;50.180;2023-02-28T15:10:20;13.80;13.80;6.20
55449;PMS5003;41318;58.724;50.180;2023-02-28T15:15:50;13.60;12.80;6.60
55449;PMS5003;41318;58.724;50.180;2023-02-28T15:18:29;18.20;18.20;13.00
55449;PMS5003;41318;58.724;50.180;2023-02-28T15:21:03;16.00;15.80;9.40
55449;PMS5003;41318;58.724;50.180;2023-02-28T15:23:35;16.00;16.00;12.80
55449;PMS5003;41318;58.724;50.180;2023-02-28T15:26:09;7.00;7.00;6.00
55449;PMS5003;41318;58.724;50.180;2023-02-28T15:28:41;29.40;27.20;13.80
55449;PMS5003;41318;58.724;50.180;2023-02-28T15:31:20;25.80;24.40;18.00
55449;PMS5003;41318;58.724;50.180;2023-02-28T15:36:57;15.20;15.20;10.40
55449;PMS5003;41318;58.724;50.180;2023-02-28T15:39:28;23.60;19.40;12.80
55449;PMS5003;41318;58.724;50.180;2023-02-28T15:42:09;20.20;18.00;13.00
55449;PMS5003;41318;58.724;50.180;2023-02-28T15:44:41;7.80;7.80;6.00
55449;PMS5003;41318;58.724;50.180;2023-02-28T15:47:15;7.40;7.00;4.20
55449;PMS5003;41318;58.724;50.180;2023-02-28T15:49:57;13.40;12.80;8.60
55449;PMS5003;41318;58.724;50.180;2023-02-28T15:52:33;18.00;16.00;11.20
55449;PMS5003;41318;58.724;50.180;2023-02-28T15:55:25;7.40;7.40;6.00
55449;PMS5003;41318;58.724;50.180;2023-02-28T15:57:57;9.00;9.00;6.00
55449;PMS5003;41318;58.724;50.180;2023-02-28T16:00:31;11.20;11.20;7.20
55449;PMS5003;41318;58.724;50.180;2023-02-28T16:03:24;11.60;11.20;7.20
55449;PMS5003;41318;58.724;50.180;2023-02-28T16:08:45;36.00;32.60;20.40
55449;PMS5003;41318;58.724;50.180;2023-02-28T16:11:38;16.60;16.60;4.20
55449;PMS5003;41318;58.724;50.180;2023-02-28T16:14:14;48.00;41.00;20.60
55449;PMS5003;41318;58.724;50.180;2023-02-28T16:16:47;29.80;29.00;16.00
55449;PMS5003;41318;58.724;50.180;2023-02-28T16:19:19;30.00;28.60;17.60
55449;PMS5003;41318;58.724;50.180;2023-02-28T16:21:53;34.40;30.80;21.80
55449;PMS5003;41318;58.724;50.180;2023-02-28T16:24:28;20.40;18.60;11.20
55449;PMS5003;41318;58.724;50.180;2023-02-28T16:27:01;21.00;20.80;12.80
55449;PMS5003;41318;58.724;50.180;2023-02-28T16:29:35;20.60;19.80;14.60
55449;PMS5003;41318;58.724;50.180;2023-02-28T16:32:10;15.60;15.60;10.80
55449;PMS5003;41318;58.724;50.180;2023-02-28T16:35:01;7.00;7.00;1.00
55449;PMS5003;41318;58.724;50.180;2023-02-28T16:37:33;30.60;28.00;15.20
55449;PMS5003;41318;58.724;50.180;2023-02-28T16:40:06;9.00;9.00;9.00
55449;PMS5003;41318;58.724;50.180;2023-02-28T16:42:39;22.40;21.60;15.00
55449;PMS5003;41318;58.724;50.180;2023-02-28T16:45:24;25.40;25.40;17.20
55449;PMS5003;41318;58.724;50.180;2023-02-28T16:47:58;19.80;19.00;13.00
55449;PMS5003;41318;58.724;50.180;2023-02-28T16:50:30;31.20;29.20;16.40
55449;PMS5003;41318;58.724;50.180;2023-02-28T16:53:03;28.00;26.80;16.80
55449;PMS5003;41318;58.724;50.180;2023-02-28T16:55:56;28.80;26.20;15.00
55449;PMS5003;41318;58.724;50.180;2023-02-28T16:58:28;33.40;33.20;20.60
55449;PMS5003;41318;58.724;50.180;2023-02-28T17:00:59;35.80;27.60;18.00
55449;PMS5003;41318;58.724;50.180;2023-02-28T17:03:30;18.80;18.00;12.20
55449;PMS5003;41318;58.724;50.180;2023-02-28T17:06:02;21.00;19.80;15.60
55449;PMS5003;41318;58.724;50.180;2023-02-28T17:08:33;19.80;17.40;10.20
55449;PMS5003;41318;58.724;50.180;2023-02-28T17:11:24;21.80;21.40;12.60
55449;PMS5003;41318;58.724;50.180;2023-02-28T17:13:56;28.40;27.80;18.60
55449;PMS5003;41318;58.724;50.180;2023-02-28T17:16:28;29.60;27.80;16.00
55449;PMS5003;41318;58.724;50.180;2023-02-28T17:19:04;22.00;22.00;13.60
55449;PMS5003;41318;58.724;50.180;2023-02-28T17:21:35;24.60;24.60;14.20
55449;PMS5003;41318;58.724;50.180;2023-02-28T17:24:09;20.60;15.60;4.40
55449;PMS5003;41318;58.724;50.180;2023-02-28T17:26:43;23.20;23.20;14.60
55449;PMS5003;41318;58.724;50.180;2023-02-28T17:29:17;25.80;24.40;15.00
55449;PMS5003;41318;58.724;50.180;2023-02-28T17:32:07;15.80;15.40;10.20
55449;PMS5003;41318;58.724;50.180;2023-02-28T17:34:38;15.00;15.00;10.00
55449;PMS5003;41318;58.724;50.180;2023-02-28T17:37:28;13.60;13.60;9.40
55449;PMS5003;41318;58.724;50.180;2023-02-28T17:39:59;14.60;14.60;10.00
55449;PMS5003;41318;58.724;50.180;2023-02-28T17:42:51;12.40;12.40;9.00
55449;PMS5003;41318;58.724;50.180;2023-02-28T17:45:24;20.80;20.20;10.80
55449;PMS5003;41318;58.724;50.180;2023-02-28T17:47:55;20.80;19.00;15.00
55449;PMS5003;41318;58.724;50.180;2023-02-28T17:50:26;31.20;27.00;16.80
55449;PMS5003;41318;58.724;50.180;2023-02-28T17:52:57;39.40;37.00;21.00
55449;PMS5003;41318;58.724;50.180;2023-02-28T17:55:30;41.80;41.40;25.00
55449;PMS5003;41318;58.724;50.180;2023-02-28T17:58:02;45.60;41.80;22.80
55449;PMS5003;41318;58.724;50.180;2023-02-28T18:00:33;46.00;40.00;21.20
55449;PMS5003;41318;58.724;50.180;2023-02-28T18:03:23;45.40;41.80;24.80
55449;PMS5003;41318;58.724;50.180;2023-02-28T18:05:57;35.60;30.80;16.00
55449;PMS5003;41318;58.724;50.180;2023-02-28T18:08:29;30.40;27.60;16.00
55449;PMS5003;41318;58.724;50.180;2023-02-28T18:11:01;26.20;24.00;15.60
55449;PMS5003;41318;58.724;50.180;2023-02-28T18:13:32;19.00;19.00;12.00
55449;PMS5003;41318;58.724;50.180;2023-02-28T18:16:03;25.40;23.40;9.80
55449;PMS5003;41318;58.724;50.180;2023-02-28T18:18:35;15.80;15.80;9.40